Terminal Aerodrome Forecast
Issued by NWS

Home | Current Version | Previous Version | Text Only | Print | Product List | Glossary On
Versions: 1 2 3 4 5 6 7 8 9 10 11 12 13 14 15 16 17 18
000
FTUS45 KSLC 270542
TAFPVU
TAF
KPVU 270542Z 2706/2806 10009KT P6SM FEW120
     FM271500 14006KT P6SM VCSH SCT100 BKN120
     FM272000 25007KT P6SM SCT120=

USA.gov is the U.S. government's official web portal to all federal, state and local government web resources and services.